sensor_id;sensor_type;location;lat;lon;timestamp;temperature;humidity
8676;DHT22;4375;52.486;13.424;2023-04-03T00:02:13;2.30;99.90
8676;DHT22;4375;52.486;13.424;2023-04-03T00:04:39;2.20;99.90
8676;DHT22;4375;52.486;13.424;2023-04-03T00:07:05;2.30;99.90
8676;DHT22;4375;52.486;13.424;2023-04-03T00:09:30;2.30;99.90
8676;DHT22;4375;52.486;13.424;2023-04-03T00:11:56;2.20;99.90
8676;DHT22;4375;52.486;13.424;2023-04-03T00:14:22;2.20;99.90
8676;DHT22;4375;52.486;13.424;2023-04-03T00:16:47;2.30;99.90
8676;DHT22;4375;52.486;13.424;2023-04-03T00:19:13;2.20;99.90
8676;DHT22;4375;52.486;13.424;2023-04-03T00:21:39;2.20;99.90
8676;DHT22;4375;52.486;13.424;2023-04-03T00:24:05;2.20;99.90
8676;DHT22;4375;52.486;13.424;2023-04-03T00:26:31;2.20;99.90
8676;DHT22;4375;52.486;13.424;2023-04-03T00:28:57;2.20;99.90
8676;DHT22;4375;52.486;13.424;2023-04-03T00:31:22;2.20;99.90
8676;DHT22;4375;52.486;13.424;2023-04-03T00:33:48;2.20;99.90
8676;DHT22;4375;52.486;13.424;2023-04-03T00:36:15;2.20;99.90
8676;DHT22;4375;52.486;13.424;2023-04-03T00:38:41;2.20;99.90
8676;DHT22;4375;52.486;13.424;2023-04-03T00:41:07;2.20;99.90
8676;DHT22;4375;52.486;13.424;2023-04-03T00:43:33;2.10;99.90
8676;DHT22;4375;52.486;13.424;2023-04-03T00:45:59;2.10;99.90
8676;DHT22;4375;52.486;13.424;2023-04-03T00:48:36;2.20;99.90
8676;DHT22;4375;52.486;13.424;2023-04-03T00:51:04;2.20;99.90
8676;DHT22;4375;52.486;13.424;2023-04-03T00:56:21;2.10;99.90
8676;DHT22;4375;52.486;13.424;2023-04-03T00:58:53;2.10;99.90
8676;DHT22;4375;52.486;13.424;2023-04-03T01:01:26;2.10;99.90
8676;DHT22;4375;52.486;13.424;2023-04-03T01:03:52;2.10;99.90
8676;DHT22;4375;52.486;13.424;2023-04-03T01:06:23;2.10;99.90
8676;DHT22;4375;52.486;13.424;2023-04-03T01:08:51;2.10;99.90
8676;DHT22;4375;52.486;13.424;2023-04-03T01:11:16;2.10;99.90
8676;DHT22;4375;52.486;13.424;2023-04-03T01:13:43;2.10;99.90
8676;DHT22;4375;52.486;13.424;2023-04-03T01:16:09;2.00;99.90
8676;DHT22;4375;52.486;13.424;2023-04-03T01:18:37;2.10;99.90
8676;DHT22;4375;52.486;13.424;2023-04-03T01:26:49;2.00;99.90
8676;DHT22;4375;52.486;13.424;2023-04-03T01:29:16;2.00;99.90
8676;DHT22;4375;52.486;13.424;2023-04-03T01:31:53;2.00;99.90
8676;DHT22;4375;52.486;13.424;2023-04-03T01:34:19;2.00;99.90
8676;DHT22;4375;52.486;13.424;2023-04-03T01:36:45;2.00;99.90
8676;DHT22;4375;52.486;13.424;2023-04-03T01:39:11;2.00;99.90
8676;DHT22;4375;52.486;13.424;2023-04-03T01:41:37;2.00;99.90
8676;DHT22;4375;52.486;13.424;2023-04-03T01:44:03;2.00;99.90
8676;DHT22;4375;52.486;13.424;2023-04-03T01:46:29;2.00;99.90
8676;DHT22;4375;52.486;13.424;2023-04-03T01:48:55;1.90;99.90
8676;DHT22;4375;52.486;13.424;2023-04-03T01:51:21;2.00;99.90
8676;DHT22;4375;52.486;13.424;2023-04-03T01:53:46;1.90;99.90
8676;DHT22;4375;52.486;13.424;2023-04-03T01:56:12;1.90;99.90
8676;DHT22;4375;52.486;13.424;2023-04-03T01:58:37;1.90;99.90
8676;DHT22;4375;52.486;13.424;2023-04-03T02:01:03;1.90;99.90
8676;DHT22;4375;52.486;13.424;2023-04-03T02:03:29;1.90;99.90
8676;DHT22;4375;52.486;13.424;2023-04-03T02:05:56;1.80;99.90
8676;DHT22;4375;52.486;13.424;2023-04-03T02:08:21;1.80;99.90
8676;DHT22;4375;52.486;13.424;2023-04-03T02:10:48;1.80;99.90
8676;DHT22;4375;52.486;13.424;2023-04-03T02:13:15;1.80;99.90
8676;DHT22;4375;52.486;13.424;2023-04-03T02:15:40;1.80;99.90
8676;DHT22;4375;52.486;13.424;2023-04-03T02:18:07;1.70;99.90
8676;DHT22;4375;52.486;13.424;2023-04-03T02:20:33;1.70;99.90
8676;DHT22;4375;52.486;13.424;2023-04-03T02:22:59;1.70;99.90
8676;DHT22;4375;52.486;13.424;2023-04-03T02:25:24;1.60;99.90
8676;DHT22;4375;52.486;13.424;2023-04-03T02:27:50;1.70;99.90
8676;DHT22;4375;52.486;13.424;2023-04-03T02:30:16;1.60;99.90
8676;DHT22;4375;52.486;13.424;2023-04-03T02:32:42;1.60;99.90
8676;DHT22;4375;52.486;13.424;2023-04-03T02:35:09;1.60;99.90
8676;DHT22;4375;52.486;13.424;2023-04-03T02:37:35;1.60;99.90
8676;DHT22;4375;52.486;13.424;2023-04-03T02:40:01;1.60;99.90
8676;DHT22;4375;52.486;13.424;2023-04-03T02:42:26;1.60;99.90
8676;DHT22;4375;52.486;13.424;2023-04-03T02:44:52;1.50;99.90
8676;DHT22;4375;52.486;13.424;2023-04-03T02:47:17;1.60;99.90
8676;DHT22;4375;52.486;13.424;2023-04-03T02:49:43;1.60;99.90
8676;DHT22;4375;52.486;13.424;2023-04-03T02:52:10;1.60;99.90
8676;DHT22;4375;52.486;13.424;2023-04-03T02:54:36;1.50;99.90
8676;DHT22;4375;52.486;13.424;2023-04-03T02:57:01;1.50;99.90
8676;DHT22;4375;52.486;13.424;2023-04-03T02:59:27;1.50;99.90
8676;DHT22;4375;52.486;13.424;2023-04-03T03:01:53;1.50;99.90
8676;DHT22;4375;52.486;13.424;2023-04-03T03:04:19;1.50;99.90
8676;DHT22;4375;52.486;13.424;2023-04-03T03:06:44;1.50;99.90
8676;DHT22;4375;52.486;13.424;2023-04-03T03:09:10;1.50;99.90
8676;DHT22;4375;52.486;13.424;2023-04-03T03:11:36;1.50;99.90
8676;DHT22;4375;52.486;13.424;2023-04-03T03:14:01;1.40;99.90
8676;DHT22;4375;52.486;13.424;2023-04-03T03:16:27;1.40;99.90
8676;DHT22;4375;52.486;13.424;2023-04-03T03:18:53;1.40;99.90
8676;DHT22;4375;52.486;13.424;2023-04-03T03:21:18;1.40;99.90
8676;DHT22;4375;52.486;13.424;2023-04-03T03:23:44;1.40;99.90
8676;DHT22;4375;52.486;13.424;2023-04-03T03:26:10;1.30;99.90
8676;DHT22;4375;52.486;13.424;2023-04-03T03:28:37;1.30;99.90
8676;DHT22;4375;52.486;13.424;2023-04-03T03:31:04;1.30;99.90
8676;DHT22;4375;52.486;13.424;2023-04-03T03:33:29;1.30;99.90
8676;DHT22;4375;52.486;13.424;2023-04-03T03:35:56;1.30;99.90
8676;DHT22;4375;52.486;13.424;2023-04-03T03:38:22;1.20;99.90
8676;DHT22;4375;52.486;13.424;2023-04-03T03:40:48;1.30;99.90
8676;DHT22;4375;52.486;13.424;2023-04-03T03:43:15;1.30;99.90
8676;DHT22;4375;52.486;13.424;2023-04-03T03:45:40;1.30;99.90
8676;DHT22;4375;52.486;13.424;2023-04-03T03:48:07;1.20;99.90
8676;DHT22;4375;52.486;13.424;2023-04-03T03:50:32;1.20;99.90
8676;DHT22;4375;52.486;13.424;2023-04-03T03:52:58;1.20;99.90
8676;DHT22;4375;52.486;13.424;2023-04-03T03:55:24;1.20;99.90
8676;DHT22;4375;52.486;13.424;2023-04-03T03:57:50;1.20;99.90
8676;DHT22;4375;52.486;13.424;2023-04-03T04:00:16;1.10;99.90
8676;DHT22;4375;52.486;13.424;2023-04-03T04:02:42;1.20;99.90
8676;DHT22;4375;52.486;13.424;2023-04-03T04:05:08;1.10;99.90
8676;DHT22;4375;52.486;13.424;2023-04-03T04:07:33;1.10;99.90
8676;DHT22;4375;52.486;13.424;2023-04-03T04:09:59;1.10;99.90
8676;DHT22;4375;52.486;13.424;2023-04-03T04:12:25;1.10;99.90
8676;DHT22;4375;52.486;13.424;2023-04-03T04:14:50;1.10;99.90
8676;DHT22;4375;52.486;13.424;2023-04-03T04:17:16;1.00;99.90
8676;DHT22;4375;52.486;13.424;2023-04-03T04:19:41;1.00;99.90
8676;DHT22;4375;52.486;13.424;2023-04-03T04:22:07;1.00;99.90
8676;DHT22;4375;52.486;13.424;2023-04-03T04:24:33;1.00;99.90
8676;DHT22;4375;52.486;13.424;2023-04-03T04:26:58;1.00;99.90
8676;DHT22;4375;52.486;13.424;2023-04-03T04:29:24;1.00;99.90
8676;DHT22;4375;52.486;13.424;2023-04-03T04:31:50;0.90;99.90
8676;DHT22;4375;52.486;13.424;2023-04-03T04:34:16;1.00;99.90
8676;DHT22;4375;52.486;13.424;2023-04-03T04:36:41;1.00;99.90
8676;DHT22;4375;52.486;13.424;2023-04-03T04:39:07;0.90;99.90
8676;DHT22;4375;52.486;13.424;2023-04-03T04:41:33;0.90;99.90
8676;DHT22;4375;52.486;13.424;2023-04-03T04:43:59;0.90;99.90
8676;DHT22;4375;52.486;13.424;2023-04-03T04:46:26;0.90;99.90
8676;DHT22;4375;52.486;13.424;2023-04-03T04:48:51;0.90;99.90
8676;DHT22;4375;52.486;13.424;2023-04-03T04:51:17;0.90;99.90
8676;DHT22;4375;52.486;13.424;2023-04-03T04:53:43;0.90;99.90
8676;DHT22;4375;52.486;13.424;2023-04-03T04:56:09;0.90;99.90
8676;DHT22;4375;52.486;13.424;2023-04-03T04:58:35;0.90;99.90
8676;DHT22;4375;52.486;13.424;2023-04-03T05:01:05;1.00;99.90
8676;DHT22;4375;52.486;13.424;2023-04-03T05:03:32;1.00;99.90
8676;DHT22;4375;52.486;13.424;2023-04-03T05:05:58;1.00;99.90
8676;DHT22;4375;52.486;13.424;2023-04-03T05:08:24;1.00;99.90
8676;DHT22;4375;52.486;13.424;2023-04-03T05:10:50;1.00;99.90
8676;DHT22;4375;52.486;13.424;2023-04-03T05:13:16;1.10;99.90
8676;DHT22;4375;52.486;13.424;2023-04-03T05:15:42;1.10;99.90
8676;DHT22;4375;52.486;13.424;2023-04-03T05:18:07;1.10;99.90
8676;DHT22;4375;52.486;13.424;2023-04-03T05:20:33;1.10;99.90
8676;DHT22;4375;52.486;13.424;2023-04-03T05:22:59;1.10;99.90
8676;DHT22;4375;52.486;13.424;2023-04-03T05:25:25;1.10;99.90
8676;DHT22;4375;52.486;13.424;2023-04-03T05:27:51;1.10;99.90
8676;DHT22;4375;52.486;13.424;2023-04-03T05:30:17;1.10;99.90
8676;DHT22;4375;52.486;13.424;2023-04-03T05:32:43;1.10;99.90
8676;DHT22;4375;52.486;13.424;2023-04-03T05:35:09;1.20;99.90
8676;DHT22;4375;52.486;13.424;2023-04-03T05:37:35;1.20;99.90
8676;DHT22;4375;52.486;13.424;2023-04-03T05:40:00;1.20;99.90
8676;DHT22;4375;52.486;13.424;2023-04-03T05:42:26;1.20;99.90
8676;DHT22;4375;52.486;13.424;2023-04-03T05:44:52;1.30;99.90
8676;DHT22;4375;52.486;13.424;2023-04-03T05:47:18;1.30;99.90
8676;DHT22;4375;52.486;13.424;2023-04-03T05:49:44;1.30;99.90
8676;DHT22;4375;52.486;13.424;2023-04-03T05:52:31;1.40;99.90
8676;DHT22;4375;52.486;13.424;2023-04-03T05:54:58;1.30;99.90
8676;DHT22;4375;52.486;13.424;2023-04-03T05:57:24;1.40;99.90
8676;DHT22;4375;52.486;13.424;2023-04-03T05:59:49;1.40;99.90
8676;DHT22;4375;52.486;13.424;2023-04-03T06:02:18;1.50;99.90
8676;DHT22;4375;52.486;13.424;2023-04-03T06:04:44;1.50;99.90
8676;DHT22;4375;52.486;13.424;2023-04-03T06:07:21;1.50;99.90
8676;DHT22;4375;52.486;13.424;2023-04-03T06:09:48;1.50;99.90
8676;DHT22;4375;52.486;13.424;2023-04-03T06:12:15;1.60;99.90
8676;DHT22;4375;52.486;13.424;2023-04-03T06:14:40;1.60;99.90
8676;DHT22;4375;52.486;13.424;2023-04-03T06:17:06;1.60;99.90
8676;DHT22;4375;52.486;13.424;2023-04-03T06:19:34;1.70;99.90
8676;DHT22;4375;52.486;13.424;2023-04-03T06:22:00;1.70;99.90
8676;DHT22;4375;52.486;13.424;2023-04-03T06:24:25;1.70;99.90
8676;DHT22;4375;52.486;13.424;2023-04-03T06:26:52;1.80;99.90
8676;DHT22;4375;52.486;13.424;2023-04-03T06:29:19;1.80;99.90
8676;DHT22;4375;52.486;13.424;2023-04-03T06:31:45;1.80;99.90
8676;DHT22;4375;52.486;13.424;2023-04-03T06:34:11;1.90;99.90
8676;DHT22;4375;52.486;13.424;2023-04-03T06:36:37;1.90;99.90
8676;DHT22;4375;52.486;13.424;2023-04-03T06:39:04;2.00;99.90
8676;DHT22;4375;52.486;13.424;2023-04-03T06:41:30;2.10;99.90
8676;DHT22;4375;52.486;13.424;2023-04-03T06:43:56;2.00;99.90
8676;DHT22;4375;52.486;13.424;2023-04-03T06:46:23;2.00;99.90
8676;DHT22;4375;52.486;13.424;2023-04-03T06:48:49;2.00;99.90
8676;DHT22;4375;52.486;13.424;2023-04-03T06:51:19;2.00;99.90
8676;DHT22;4375;52.486;13.424;2023-04-03T06:53:47;2.10;99.90
8676;DHT22;4375;52.486;13.424;2023-04-03T06:56:13;2.30;99.90
8676;DHT22;4375;52.486;13.424;2023-04-03T06:58:39;2.40;99.90
8676;DHT22;4375;52.486;13.424;2023-04-03T07:01:04;2.40;99.90
8676;DHT22;4375;52.486;13.424;2023-04-03T07:03:30;2.40;99.90
8676;DHT22;4375;52.486;13.424;2023-04-03T07:05:56;2.40;99.90
8676;DHT22;4375;52.486;13.424;2023-04-03T07:08:22;2.60;99.90
8676;DHT22;4375;52.486;13.424;2023-04-03T07:10:49;2.70;99.90
8676;DHT22;4375;52.486;13.424;2023-04-03T07:13:15;2.70;99.90
8676;DHT22;4375;52.486;13.424;2023-04-03T07:15:41;2.70;99.90
8676;DHT22;4375;52.486;13.424;2023-04-03T07:18:06;2.60;99.90
8676;DHT22;4375;52.486;13.424;2023-04-03T07:20:32;2.60;99.90
8676;DHT22;4375;52.486;13.424;2023-04-03T07:22:58;2.70;99.90
8676;DHT22;4375;52.486;13.424;2023-04-03T07:25:23;2.80;99.90
8676;DHT22;4375;52.486;13.424;2023-04-03T07:27:49;2.80;99.90
8676;DHT22;4375;52.486;13.424;2023-04-03T07:30:15;2.90;99.90
8676;DHT22;4375;52.486;13.424;2023-04-03T07:32:40;2.80;99.90
8676;DHT22;4375;52.486;13.424;2023-04-03T07:35:07;2.80;99.90
8676;DHT22;4375;52.486;13.424;2023-04-03T07:37:33;2.90;99.90
8676;DHT22;4375;52.486;13.424;2023-04-03T07:39:58;3.00;99.90
8676;DHT22;4375;52.486;13.424;2023-04-03T07:42:25;3.10;99.90
8676;DHT22;4375;52.486;13.424;2023-04-03T07:44:53;3.30;99.90
8676;DHT22;4375;52.486;13.424;2023-04-03T07:47:19;3.40;99.90
8676;DHT22;4375;52.486;13.424;2023-04-03T07:49:45;3.60;99.90
8676;DHT22;4375;52.486;13.424;2023-04-03T07:52:11;3.60;99.90
8676;DHT22;4375;52.486;13.424;2023-04-03T07:54:38;3.70;99.90
8676;DHT22;4375;52.486;13.424;2023-04-03T07:57:04;3.90;99.90
8676;DHT22;4375;52.486;13.424;2023-04-03T07:59:30;4.20;99.90
8676;DHT22;4375;52.486;13.424;2023-04-03T08:01:56;4.50;99.90
8676;DHT22;4375;52.486;13.424;2023-04-03T08:04:22;4.50;99.90
8676;DHT22;4375;52.486;13.424;2023-04-03T08:06:47;4.10;99.90
8676;DHT22;4375;52.486;13.424;2023-04-03T08:09:15;4.00;99.90
8676;DHT22;4375;52.486;13.424;2023-04-03T08:11:41;4.00;99.90
8676;DHT22;4375;52.486;13.424;2023-04-03T08:14:07;3.70;99.90
8676;DHT22;4375;52.486;13.424;2023-04-03T08:16:33;3.70;99.90
8676;DHT22;4375;52.486;13.424;2023-04-03T08:18:58;3.70;99.90
8676;DHT22;4375;52.486;13.424;2023-04-03T08:21:24;3.70;99.90
8676;DHT22;4375;52.486;13.424;2023-04-03T08:23:51;3.70;99.90
8676;DHT22;4375;52.486;13.424;2023-04-03T08:26:19;3.80;99.90
8676;DHT22;4375;52.486;13.424;2023-04-03T08:28:46;3.90;99.90
8676;DHT22;4375;52.486;13.424;2023-04-03T08:31:15;3.90;99.90
8676;DHT22;4375;52.486;13.424;2023-04-03T08:33:41;4.00;99.90
8676;DHT22;4375;52.486;13.424;2023-04-03T08:36:15;3.80;99.90
8676;DHT22;4375;52.486;13.424;2023-04-03T08:38:41;4.00;99.90
8676;DHT22;4375;52.486;13.424;2023-04-03T08:41:34;3.90;99.90
8676;DHT22;4375;52.486;13.424;2023-04-03T08:52:14;4.00;99.90
8676;DHT22;4375;52.486;13.424;2023-04-03T08:54:52;4.00;99.90
8676;DHT22;4375;52.486;13.424;2023-04-03T08:57:34;4.10;99.90
8676;DHT22;4375;52.486;13.424;2023-04-03T09:00:11;4.20;99.90
8676;DHT22;4375;52.486;13.424;2023-04-03T09:02:44;4.40;99.90
8676;DHT22;4375;52.486;13.424;2023-04-03T09:05:13;4.30;99.90
8676;DHT22;4375;52.486;13.424;2023-04-03T09:07:49;4.70;99.90
8676;DHT22;4375;52.486;13.424;2023-04-03T09:10:25;4.30;99.90
8676;DHT22;4375;52.486;13.424;2023-04-03T09:13:03;4.20;99.90
8676;DHT22;4375;52.486;13.424;2023-04-03T09:15:33;4.20;99.90
8676;DHT22;4375;52.486;13.424;2023-04-03T09:18:09;4.30;99.90
8676;DHT22;4375;52.486;13.424;2023-04-03T09:26:07;4.40;99.90
8676;DHT22;4375;52.486;13.424;2023-04-03T09:28:38;4.80;99.90
8676;DHT22;4375;52.486;13.424;2023-04-03T09:31:35;4.90;99.90
8676;DHT22;4375;52.486;13.424;2023-04-03T09:34:28;4.80;99.90
8676;DHT22;4375;52.486;13.424;2023-04-03T09:36:57;4.90;99.90
8676;DHT22;4375;52.486;13.424;2023-04-03T09:39:28;4.80;99.90
8676;DHT22;4375;52.486;13.424;2023-04-03T09:44:27;4.60;99.90
8676;DHT22;4375;52.486;13.424;2023-04-03T09:46:53;4.50;99.90
8676;DHT22;4375;52.486;13.424;2023-04-03T09:49:19;4.70;99.90
8676;DHT22;4375;52.486;13.424;2023-04-03T09:51:45;4.90;99.90
8676;DHT22;4375;52.486;13.424;2023-04-03T09:56:56;5.50;99.90
8676;DHT22;4375;52.486;13.424;2023-04-03T09:59:23;5.50;99.90
8676;DHT22;4375;52.486;13.424;2023-04-03T10:04:39;5.40;99.90
8676;DHT22;4375;52.486;13.424;2023-04-03T10:07:30;5.20;99.90
8676;DHT22;4375;52.486;13.424;2023-04-03T10:10:02;5.20;99.90
8676;DHT22;4375;52.486;13.424;2023-04-03T10:12:29;5.20;99.90
8676;DHT22;4375;52.486;13.424;2023-04-03T10:14:59;5.20;99.90
8676;DHT22;4375;52.486;13.424;2023-04-03T10:18:06;5.20;99.90
8676;DHT22;4375;52.486;13.424;2023-04-03T10:20:47;5.30;99.90
8676;DHT22;4375;52.486;13.424;2023-04-03T10:28:27;5.30;99.90
8676;DHT22;4375;52.486;13.424;2023-04-03T10:31:06;5.30;99.90
8676;DHT22;4375;52.486;13.424;2023-04-03T10:33:53;5.00;99.90
8676;DHT22;4375;52.486;13.424;2023-04-03T10:45:21;5.10;99.90
8676;DHT22;4375;52.486;13.424;2023-04-03T10:50:52;5.40;99.90
8676;DHT22;4375;52.486;13.424;2023-04-03T10:53:35;5.20;99.90
8676;DHT22;4375;52.486;13.424;2023-04-03T10:58:44;5.30;99.90
8676;DHT22;4375;52.486;13.424;2023-04-03T11:01:23;5.40;99.90
8676;DHT22;4375;52.486;13.424;2023-04-03T11:03:53;5.60;99.90
8676;DHT22;4375;52.486;13.424;2023-04-03T11:06:21;5.50;99.90
8676;DHT22;4375;52.486;13.424;2023-04-03T11:08:59;5.40;99.90
8676;DHT22;4375;52.486;13.424;2023-04-03T11:11:31;5.30;99.90
8676;DHT22;4375;52.486;13.424;2023-04-03T11:14:02;5.30;99.90
8676;DHT22;4375;52.486;13.424;2023-04-03T11:16:34;5.30;99.90
8676;DHT22;4375;52.486;13.424;2023-04-03T11:19:20;5.20;99.90
8676;DHT22;4375;52.486;13.424;2023-04-03T11:22:08;5.30;99.90
8676;DHT22;4375;52.486;13.424;2023-04-03T11:24:37;5.80;99.90
8676;DHT22;4375;52.486;13.424;2023-04-03T11:27:05;5.60;99.90
8676;DHT22;4375;52.486;13.424;2023-04-03T11:29:40;5.90;99.90
8676;DHT22;4375;52.486;13.424;2023-04-03T11:35:26;5.70;99.90
8676;DHT22;4375;52.486;13.424;2023-04-03T11:37:53;6.00;99.90
8676;DHT22;4375;52.486;13.424;2023-04-03T11:40:29;6.10;99.90
8676;DHT22;4375;52.486;13.424;2023-04-03T11:50:52;5.80;99.90
8676;DHT22;4375;52.486;13.424;2023-04-03T12:00:51;5.40;99.90
8676;DHT22;4375;52.486;13.424;2023-04-03T12:24:42;5.70;99.90
8676;DHT22;4375;52.486;13.424;2023-04-03T12:48:54;5.70;99.90
8676;DHT22;4375;52.486;13.424;2023-04-03T12:51:45;5.90;99.90
8676;DHT22;4375;52.486;13.424;2023-04-03T12:54:32;5.70;99.90
8676;DHT22;4375;52.486;13.424;2023-04-03T12:57:20;5.60;99.90
8676;DHT22;4375;52.486;13.424;2023-04-03T12:59:47;5.70;99.90
8676;DHT22;4375;52.486;13.424;2023-04-03T13:02:27;5.70;99.90
8676;DHT22;4375;52.486;13.424;2023-04-03T13:04:56;5.80;99.90
8676;DHT22;4375;52.486;13.424;2023-04-03T13:07:31;5.80;99.90
8676;DHT22;4375;52.486;13.424;2023-04-03T13:15:27;5.70;99.90
8676;DHT22;4375;52.486;13.424;2023-04-03T13:17:55;5.60;99.90
8676;DHT22;4375;52.486;13.424;2023-04-03T13:20:30;5.70;99.90
8676;DHT22;4375;52.486;13.424;2023-04-03T13:23:03;5.70;99.90
8676;DHT22;4375;52.486;13.424;2023-04-03T13:25:33;5.90;99.90
8676;DHT22;4375;52.486;13.424;2023-04-03T13:28:01;5.70;99.90
8676;DHT22;4375;52.486;13.424;2023-04-03T13:30:30;5.80;99.90
8676;DHT22;4375;52.486;13.424;2023-04-03T13:32:58;5.70;99.90
8676;DHT22;4375;52.486;13.424;2023-04-03T13:38:05;5.70;99.90
8676;DHT22;4375;52.486;13.424;2023-04-03T13:40:31;5.60;99.90
8676;DHT22;4375;52.486;13.424;2023-04-03T13:43:06;5.70;99.90
8676;DHT22;4375;52.486;13.424;2023-04-03T13:46:38;5.70;99.90
8676;DHT22;4375;52.486;13.424;2023-04-03T13:48:46;5.80;99.90
8676;DHT22;4375;52.486;13.424;2023-04-03T13:51:17;5.60;99.90
8676;DHT22;4375;52.486;13.424;2023-04-03T13:53:56;5.60;99.90
8676;DHT22;4375;52.486;13.424;2023-04-03T13:56:40;5.50;99.90
8676;DHT22;4375;52.486;13.424;2023-04-03T14:04:48;5.70;99.90
8676;DHT22;4375;52.486;13.424;2023-04-03T14:07:16;5.80;99.90
8676;DHT22;4375;52.486;13.424;2023-04-03T14:09:42;5.70;99.90
8676;DHT22;4375;52.486;13.424;2023-04-03T14:12:14;5.60;99.90
8676;DHT22;4375;52.486;13.424;2023-04-03T14:14:42;5.50;99.90
8676;DHT22;4375;52.486;13.424;2023-04-03T14:17:16;5.40;99.90
8676;DHT22;4375;52.486;13.424;2023-04-03T14:19:43;5.40;99.90
8676;DHT22;4375;52.486;13.424;2023-04-03T14:24:44;5.70;99.90
8676;DHT22;4375;52.486;13.424;2023-04-03T14:27:25;5.70;99.90
8676;DHT22;4375;52.486;13.424;2023-04-03T14:29:52;5.50;99.90
8676;DHT22;4375;52.486;13.424;2023-04-03T14:32:20;5.40;99.90
8676;DHT22;4375;52.486;13.424;2023-04-03T14:34:47;5.40;99.90
8676;DHT22;4375;52.486;13.424;2023-04-03T14:37:19;5.40;99.90
8676;DHT22;4375;52.486;13.424;2023-04-03T14:39:46;5.40;99.90
8676;DHT22;4375;52.486;13.424;2023-04-03T14:42:20;5.70;99.90
8676;DHT22;4375;52.486;13.424;2023-04-03T14:44:47;5.80;99.90
8676;DHT22;4375;52.486;13.424;2023-04-03T14:47:16;5.90;99.90
8676;DHT22;4375;52.486;13.424;2023-04-03T14:49:42;5.70;99.90
8676;DHT22;4375;52.486;13.424;2023-04-03T14:52:26;5.70;99.90
8676;DHT22;4375;52.486;13.424;2023-04-03T14:54:53;5.60;99.90
8676;DHT22;4375;52.486;13.424;2023-04-03T14:57:19;5.80;99.90
8676;DHT22;4375;52.486;13.424;2023-04-03T14:59:47;5.70;99.90
8676;DHT22;4375;52.486;13.424;2023-04-03T15:02:33;5.50;99.90
8676;DHT22;4375;52.486;13.424;2023-04-03T15:05:03;5.60;99.90
8676;DHT22;4375;52.486;13.424;2023-04-03T15:07:32;5.60;99.90
8676;DHT22;4375;52.486;13.424;2023-04-03T15:10:20;5.50;99.90
8676;DHT22;4375;52.486;13.424;2023-04-03T15:12:47;5.50;99.90
8676;DHT22;4375;52.486;13.424;2023-04-03T15:15:13;5.50;99.90
8676;DHT22;4375;52.486;13.424;2023-04-03T15:17:39;5.40;99.90
8676;DHT22;4375;52.486;13.424;2023-04-03T15:20:13;5.30;99.90
8676;DHT22;4375;52.486;13.424;2023-04-03T15:22:39;5.30;99.90
8676;DHT22;4375;52.486;13.424;2023-04-03T15:25:05;5.30;99.90
8676;DHT22;4375;52.486;13.424;2023-04-03T15:27:31;5.30;99.90
8676;DHT22;4375;52.486;13.424;2023-04-03T15:29:57;5.20;99.90
8676;DHT22;4375;52.486;13.424;2023-04-03T15:32:22;5.20;99.90
8676;DHT22;4375;52.486;13.424;2023-04-03T15:34:48;5.10;99.90
8676;DHT22;4375;52.486;13.424;2023-04-03T15:37:14;5.10;99.90
8676;DHT22;4375;52.486;13.424;2023-04-03T15:39:39;5.10;99.90
8676;DHT22;4375;52.486;13.424;2023-04-03T15:42:05;5.10;99.90
8676;DHT22;4375;52.486;13.424;2023-04-03T15:44:33;5.20;99.90
8676;DHT22;4375;52.486;13.424;2023-04-03T15:47:00;5.20;99.90
8676;DHT22;4375;52.486;13.424;2023-04-03T15:49:26;5.20;99.90
8676;DHT22;4375;52.486;13.424;2023-04-03T15:51:52;5.20;99.90
8676;DHT22;4375;52.486;13.424;2023-04-03T15:54:18;5.20;99.90
8676;DHT22;4375;52.486;13.424;2023-04-03T15:56:43;5.10;99.90
8676;DHT22;4375;52.486;13.424;2023-04-03T15:59:09;5.10;99.90
8676;DHT22;4375;52.486;13.424;2023-04-03T16:01:36;5.10;99.90
8676;DHT22;4375;52.486;13.424;2023-04-03T16:04:02;5.00;99.90
8676;DHT22;4375;52.486;13.424;2023-04-03T16:06:28;4.90;99.90
8676;DHT22;4375;52.486;13.424;2023-04-03T16:08:56;4.80;99.90
8676;DHT22;4375;52.486;13.424;2023-04-03T16:11:26;4.80;99.90
8676;DHT22;4375;52.486;13.424;2023-04-03T16:13:53;4.70;99.90
8676;DHT22;4375;52.486;13.424;2023-04-03T16:16:19;4.70;99.90
8676;DHT22;4375;52.486;13.424;2023-04-03T16:18:45;4.70;99.90
8676;DHT22;4375;52.486;13.424;2023-04-03T16:21:12;4.80;99.90
8676;DHT22;4375;52.486;13.424;2023-04-03T16:23:39;4.80;99.90
8676;DHT22;4375;52.486;13.424;2023-04-03T16:26:05;4.90;99.90
8676;DHT22;4375;52.486;13.424;2023-04-03T16:28:31;4.90;99.90
8676;DHT22;4375;52.486;13.424;2023-04-03T16:30:57;5.10;99.90
8676;DHT22;4375;52.486;13.424;2023-04-03T16:33:23;5.10;99.90
8676;DHT22;4375;52.486;13.424;2023-04-03T16:35:50;5.10;99.90
8676;DHT22;4375;52.486;13.424;2023-04-03T16:38:17;5.10;99.90
8676;DHT22;4375;52.486;13.424;2023-04-03T16:40:44;5.10;99.90
8676;DHT22;4375;52.486;13.424;2023-04-03T16:43:10;5.10;99.90
8676;DHT22;4375;52.486;13.424;2023-04-03T16:45:36;5.10;99.90
8676;DHT22;4375;52.486;13.424;2023-04-03T16:48:02;5.10;99.90
8676;DHT22;4375;52.486;13.424;2023-04-03T16:50:28;5.10;99.90
8676;DHT22;4375;52.486;13.424;2023-04-03T16:52:54;5.10;99.90
8676;DHT22;4375;52.486;13.424;2023-04-03T16:55:19;5.10;99.90
8676;DHT22;4375;52.486;13.424;2023-04-03T16:57:46;5.10;99.90
8676;DHT22;4375;52.486;13.424;2023-04-03T17:00:12;5.10;99.90
8676;DHT22;4375;52.486;13.424;2023-04-03T17:02:39;5.00;99.90
8676;DHT22;4375;52.486;13.424;2023-04-03T17:05:05;5.00;99.90
8676;DHT22;4375;52.486;13.424;2023-04-03T17:07:31;5.00;99.90
8676;DHT22;4375;52.486;13.424;2023-04-03T17:09:56;4.90;99.90
8676;DHT22;4375;52.486;13.424;2023-04-03T17:12:22;4.90;99.90
8676;DHT22;4375;52.486;13.424;2023-04-03T17:14:48;4.90;99.90
8676;DHT22;4375;52.486;13.424;2023-04-03T17:17:14;4.90;99.90
8676;DHT22;4375;52.486;13.424;2023-04-03T17:19:41;4.90;99.90
8676;DHT22;4375;52.486;13.424;2023-04-03T17:22:08;4.80;99.90
8676;DHT22;4375;52.486;13.424;2023-04-03T17:24:35;4.80;99.90
8676;DHT22;4375;52.486;13.424;2023-04-03T17:27:01;4.80;99.90
8676;DHT22;4375;52.486;13.424;2023-04-03T17:29:27;4.80;99.90
8676;DHT22;4375;52.486;13.424;2023-04-03T17:31:53;4.90;99.90
8676;DHT22;4375;52.486;13.424;2023-04-03T17:34:18;4.90;99.90
8676;DHT22;4375;52.486;13.424;2023-04-03T17:36:44;4.80;99.90
8676;DHT22;4375;52.486;13.424;2023-04-03T17:39:10;4.70;99.90
8676;DHT22;4375;52.486;13.424;2023-04-03T17:41:36;4.70;99.90
8676;DHT22;4375;52.486;13.424;2023-04-03T17:44:02;4.70;99.90
8676;DHT22;4375;52.486;13.424;2023-04-03T17:46:28;4.80;99.90
8676;DHT22;4375;52.486;13.424;2023-04-03T17:48:54;4.70;99.90
8676;DHT22;4375;52.486;13.424;2023-04-03T17:51:22;4.70;99.90
8676;DHT22;4375;52.486;13.424;2023-04-03T17:53:48;4.70;99.90
8676;DHT22;4375;52.486;13.424;2023-04-03T17:56:20;4.80;99.90
8676;DHT22;4375;52.486;13.424;2023-04-03T17:58:47;4.70;99.90
8676;DHT22;4375;52.486;13.424;2023-04-03T18:01:23;4.80;99.90
8676;DHT22;4375;52.486;13.424;2023-04-03T18:03:52;4.70;99.90
8676;DHT22;4375;52.486;13.424;2023-04-03T18:06:19;4.60;99.90
8676;DHT22;4375;52.486;13.424;2023-04-03T18:08:51;4.60;99.90
8676;DHT22;4375;52.486;13.424;2023-04-03T18:11:18;4.50;99.90
8676;DHT22;4375;52.486;13.424;2023-04-03T18:13:45;4.50;99.90
8676;DHT22;4375;52.486;13.424;2023-04-03T18:16:12;4.50;99.90
8676;DHT22;4375;52.486;13.424;2023-04-03T18:18:38;4.50;99.90